sensor_id;sensor_type;location;lat;lon;timestamp;P1;durP1;ratioP1;P2;durP2;ratioP2
66702;SDS011;60933;46.398;-63.798;2022-12-05T00:00:00;0.50;;;0.20;;
66702;SDS011;60933;46.398;-63.798;2022-12-05T00:04:52;1.73;;;0.20;;
66702;SDS011;60933;46.398;-63.798;2022-12-05T00:09:44;4.13;;;0.75;;
66702;SDS011;60933;46.398;-63.798;2022-12-05T00:14:36;2.50;;;0.52;;
66702;SDS011;60933;46.398;-63.798;2022-12-05T00:17:02;1.98;;;0.93;;
66702;SDS011;60933;46.398;-63.798;2022-12-05T00:19:28;4.50;;;1.70;;
66702;SDS011;60933;46.398;-63.798;2022-12-05T00:24:21;0.95;;;0.30;;
66702;SDS011;60933;46.398;-63.798;2022-12-05T00:29:13;0.65;;;0.47;;
66702;SDS011;60933;46.398;-63.798;2022-12-05T00:34:05;1.38;;;0.35;;
66702;SDS011;60933;46.398;-63.798;2022-12-05T00:38:59;0.95;;;0.30;;
66702;SDS011;60933;46.398;-63.798;2022-12-05T00:41:28;1.33;;;1.23;;
66702;SDS011;60933;46.398;-63.798;2022-12-05T00:43:55;1.17;;;0.57;;
66702;SDS011;60933;46.398;-63.798;2022-12-05T00:46:24;1.67;;;0.52;;
66702;SDS011;60933;46.398;-63.798;2022-12-05T00:48:52;0.60;;;0.43;;
66702;SDS011;60933;46.398;-63.798;2022-12-05T00:51:22;1.42;;;0.50;;
66702;SDS011;60933;46.398;-63.798;2022-12-05T00:53:52;0.93;;;0.30;;
66702;SDS011;60933;46.398;-63.798;2022-12-05T00:56:22;1.58;;;0.30;;
66702;SDS011;60933;46.398;-63.798;2022-12-05T00:58:49;1.10;;;0.43;;
66702;SDS011;60933;46.398;-63.798;2022-12-05T01:01:19;0.85;;;0.50;;
66702;SDS011;60933;46.398;-63.798;2022-12-05T01:03:53;1.38;;;0.43;;
66702;SDS011;60933;46.398;-63.798;2022-12-05T01:06:22;2.30;;;0.32;;
66702;SDS011;60933;46.398;-63.798;2022-12-05T01:08:49;2.17;;;0.63;;
66702;SDS011;60933;46.398;-63.798;2022-12-05T01:11:18;2.17;;;0.70;;
66702;SDS011;60933;46.398;-63.798;2022-12-05T01:13:45;1.40;;;0.40;;
66702;SDS011;60933;46.398;-63.798;2022-12-05T01:16:12;1.25;;;0.70;;
66702;SDS011;60933;46.398;-63.798;2022-12-05T01:18:40;3.03;;;1.20;;
66702;SDS011;60933;46.398;-63.798;2022-12-05T01:21:06;1.98;;;0.73;;
66702;SDS011;60933;46.398;-63.798;2022-12-05T01:23:33;4.00;;;1.67;;
66702;SDS011;60933;46.398;-63.798;2022-12-05T01:26:03;2.35;;;1.20;;
66702;SDS011;60933;46.398;-63.798;2022-12-05T01:28:32;3.35;;;1.15;;
66702;SDS011;60933;46.398;-63.798;2022-12-05T01:31:02;3.45;;;1.33;;
66702;SDS011;60933;46.398;-63.798;2022-12-05T01:33:31;3.42;;;1.13;;
66702;SDS011;60933;46.398;-63.798;2022-12-05T01:35:58;1.70;;;0.75;;
66702;SDS011;60933;46.398;-63.798;2022-12-05T01:40:50;2.90;;;0.88;;
66702;SDS011;60933;46.398;-63.798;2022-12-05T01:43:24;1.30;;;0.22;;
66702;SDS011;60933;46.398;-63.798;2022-12-05T01:48:17;1.27;;;0.32;;
66702;SDS011;60933;46.398;-63.798;2022-12-05T01:50:48;1.50;;;0.77;;
66702;SDS011;60933;46.398;-63.798;2022-12-05T01:53:15;1.77;;;0.70;;
66702;SDS011;60933;46.398;-63.798;2022-12-05T01:55:43;0.85;;;0.32;;
66702;SDS011;60933;46.398;-63.798;2022-12-05T01:58:11;0.38;;;0.22;;
66702;SDS011;60933;46.398;-63.798;2022-12-05T02:00:38;1.08;;;0.40;;
66702;SDS011;60933;46.398;-63.798;2022-12-05T02:03:05;3.17;;;1.13;;
66702;SDS011;60933;46.398;-63.798;2022-12-05T02:05:35;1.70;;;1.00;;
66702;SDS011;60933;46.398;-63.798;2022-12-05T02:08:04;1.40;;;0.45;;
66702;SDS011;60933;46.398;-63.798;2022-12-05T02:19:15;1.77;;;0.50;;
66702;SDS011;60933;46.398;-63.798;2022-12-05T02:27:38;4.32;;;0.80;;
66702;SDS011;60933;46.398;-63.798;2022-12-05T02:30:21;1.55;;;0.50;;
66702;SDS011;60933;46.398;-63.798;2022-12-05T02:41:20;0.32;;;0.20;;
66702;SDS011;60933;46.398;-63.798;2022-12-05T02:46:30;3.67;;;1.27;;
66702;SDS011;60933;46.398;-63.798;2022-12-05T02:49:03;4.72;;;1.73;;
66702;SDS011;60933;46.398;-63.798;2022-12-05T02:51:34;3.42;;;1.27;;
66702;SDS011;60933;46.398;-63.798;2022-12-05T02:54:07;3.22;;;0.68;;
66702;SDS011;60933;46.398;-63.798;2022-12-05T02:56:38;2.22;;;0.52;;
66702;SDS011;60933;46.398;-63.798;2022-12-05T02:59:08;1.48;;;0.63;;
66702;SDS011;60933;46.398;-63.798;2022-12-05T03:01:34;2.38;;;0.52;;
66702;SDS011;60933;46.398;-63.798;2022-12-05T03:04:01;1.45;;;0.40;;
66702;SDS011;60933;46.398;-63.798;2022-12-05T03:06:33;1.75;;;0.30;;
66702;SDS011;60933;46.398;-63.798;2022-12-05T03:11:37;2.88;;;0.70;;
66702;SDS011;60933;46.398;-63.798;2022-12-05T03:14:11;0.55;;;0.30;;
66702;SDS011;60933;46.398;-63.798;2022-12-05T03:16:46;2.40;;;0.70;;
66702;SDS011;60933;46.398;-63.798;2022-12-05T03:19:40;2.22;;;0.43;;
66702;SDS011;60933;46.398;-63.798;2022-12-05T03:22:14;2.05;;;0.65;;
66702;SDS011;60933;46.398;-63.798;2022-12-05T03:24:48;3.20;;;0.63;;
66702;SDS011;60933;46.398;-63.798;2022-12-05T03:27:19;2.75;;;1.20;;
66702;SDS011;60933;46.398;-63.798;2022-12-05T03:30:13;1.90;;;0.75;;
66702;SDS011;60933;46.398;-63.798;2022-12-05T03:44:07;2.70;;;0.98;;
66702;SDS011;60933;46.398;-63.798;2022-12-05T03:46:50;2.47;;;1.23;;
66702;SDS011;60933;46.398;-63.798;2022-12-05T03:49:40;1.35;;;0.45;;
66702;SDS011;60933;46.398;-63.798;2022-12-05T03:52:17;0.80;;;0.32;;
66702;SDS011;60933;46.398;-63.798;2022-12-05T03:55:06;2.83;;;0.70;;
66702;SDS011;60933;46.398;-63.798;2022-12-05T04:00:11;2.10;;;0.70;;
66702;SDS011;60933;46.398;-63.798;2022-12-05T04:08:15;5.72;;;1.13;;
66702;SDS011;60933;46.398;-63.798;2022-12-05T04:10:46;7.38;;;1.35;;
66702;SDS011;60933;46.398;-63.798;2022-12-05T04:13:23;1.98;;;0.85;;
66702;SDS011;60933;46.398;-63.798;2022-12-05T04:15:56;3.15;;;1.05;;
66702;SDS011;60933;46.398;-63.798;2022-12-05T04:18:46;2.53;;;1.02;;
66702;SDS011;60933;46.398;-63.798;2022-12-05T04:21:20;2.70;;;0.50;;
66702;SDS011;60933;46.398;-63.798;2022-12-05T04:24:02;1.38;;;0.40;;
66702;SDS011;60933;46.398;-63.798;2022-12-05T04:26:52;1.73;;;0.32;;
66702;SDS011;60933;46.398;-63.798;2022-12-05T04:29:28;2.08;;;0.60;;
66702;SDS011;60933;46.398;-63.798;2022-12-05T04:32:03;1.48;;;0.43;;
66702;SDS011;60933;46.398;-63.798;2022-12-05T04:34:33;0.90;;;0.40;;
66702;SDS011;60933;46.398;-63.798;2022-12-05T04:37:03;0.68;;;0.30;;
66702;SDS011;60933;46.398;-63.798;2022-12-05T04:39:39;1.15;;;0.45;;
66702;SDS011;60933;46.398;-63.798;2022-12-05T04:42:18;1.63;;;0.47;;
66702;SDS011;60933;46.398;-63.798;2022-12-05T04:44:51;1.08;;;0.43;;
66702;SDS011;60933;46.398;-63.798;2022-12-05T04:47:21;2.58;;;1.15;;
66702;SDS011;60933;46.398;-63.798;2022-12-05T04:49:51;2.17;;;0.63;;
66702;SDS011;60933;46.398;-63.798;2022-12-05T04:52:18;2.63;;;1.20;;
66702;SDS011;60933;46.398;-63.798;2022-12-05T04:55:07;2.38;;;0.90;;
66702;SDS011;60933;46.398;-63.798;2022-12-05T04:57:42;1.58;;;0.40;;
66702;SDS011;60933;46.398;-63.798;2022-12-05T05:00:22;1.05;;;0.57;;
66702;SDS011;60933;46.398;-63.798;2022-12-05T05:02:57;0.65;;;0.47;;
66702;SDS011;60933;46.398;-63.798;2022-12-05T05:05:46;2.30;;;0.55;;
66702;SDS011;60933;46.398;-63.798;2022-12-05T05:08:16;1.48;;;0.50;;
66702;SDS011;60933;46.398;-63.798;2022-12-05T05:11:07;1.60;;;0.63;;
66702;SDS011;60933;46.398;-63.798;2022-12-05T05:13:37;0.52;;;0.43;;
66702;SDS011;60933;46.398;-63.798;2022-12-05T05:16:03;1.65;;;0.52;;
66702;SDS011;60933;46.398;-63.798;2022-12-05T05:18:30;1.65;;;0.38;;
66702;SDS011;60933;46.398;-63.798;2022-12-05T05:23:22;2.67;;;0.35;;
66702;SDS011;60933;46.398;-63.798;2022-12-05T05:28:17;0.50;;;0.22;;
66702;SDS011;60933;46.398;-63.798;2022-12-05T05:33:09;0.57;;;0.40;;
66702;SDS011;60933;46.398;-63.798;2022-12-05T05:38:01;0.82;;;0.50;;
66702;SDS011;60933;46.398;-63.798;2022-12-05T05:40:28;1.35;;;0.32;;
66702;SDS011;60933;46.398;-63.798;2022-12-05T05:42:54;0.38;;;0.38;;
66702;SDS011;60933;46.398;-63.798;2022-12-05T05:45:20;1.20;;;0.20;;
66702;SDS011;60933;46.398;-63.798;2022-12-05T05:47:47;0.25;;;0.25;;
66702;SDS011;60933;46.398;-63.798;2022-12-05T05:50:14;0.73;;;0.30;;
66702;SDS011;60933;46.398;-63.798;2022-12-05T05:52:41;1.60;;;0.60;;
66702;SDS011;60933;46.398;-63.798;2022-12-05T05:55:07;1.23;;;0.45;;
66702;SDS011;60933;46.398;-63.798;2022-12-05T05:57:34;2.67;;;0.73;;
66702;SDS011;60933;46.398;-63.798;2022-12-05T06:00:03;2.03;;;0.35;;
66702;SDS011;60933;46.398;-63.798;2022-12-05T06:02:32;3.22;;;0.77;;
66702;SDS011;60933;46.398;-63.798;2022-12-05T06:04:59;4.07;;;1.00;;
66702;SDS011;60933;46.398;-63.798;2022-12-05T06:07:26;1.77;;;0.45;;
66702;SDS011;60933;46.398;-63.798;2022-12-05T06:09:53;1.67;;;0.55;;
66702;SDS011;60933;46.398;-63.798;2022-12-05T06:14:48;1.10;;;0.43;;
66702;SDS011;60933;46.398;-63.798;2022-12-05T06:17:15;1.35;;;0.40;;
66702;SDS011;60933;46.398;-63.798;2022-12-05T06:19:41;1.02;;;0.35;;
66702;SDS011;60933;46.398;-63.798;2022-12-05T06:24:33;0.28;;;0.22;;
66702;SDS011;60933;46.398;-63.798;2022-12-05T06:27:00;1.60;;;0.30;;
66702;SDS011;60933;46.398;-63.798;2022-12-05T06:29:26;0.57;;;0.45;;
66702;SDS011;60933;46.398;-63.798;2022-12-05T06:31:52;4.72;;;0.50;;
66702;SDS011;60933;46.398;-63.798;2022-12-05T06:34:18;0.55;;;0.17;;
66702;SDS011;60933;46.398;-63.798;2022-12-05T06:36:44;0.65;;;0.65;;
66702;SDS011;60933;46.398;-63.798;2022-12-05T06:39:10;0.50;;;0.32;;
66702;SDS011;60933;46.398;-63.798;2022-12-05T06:41:36;1.00;;;0.30;;
66702;SDS011;60933;46.398;-63.798;2022-12-05T06:44:02;0.93;;;0.35;;
66702;SDS011;60933;46.398;-63.798;2022-12-05T06:48:55;0.60;;;0.20;;
66702;SDS011;60933;46.398;-63.798;2022-12-05T06:51:22;0.50;;;0.32;;
66702;SDS011;60933;46.398;-63.798;2022-12-05T06:53:49;0.43;;;0.40;;
66702;SDS011;60933;46.398;-63.798;2022-12-05T06:56:16;0.38;;;0.20;;
66702;SDS011;60933;46.398;-63.798;2022-12-05T06:58:47;0.88;;;0.40;;
66702;SDS011;60933;46.398;-63.798;2022-12-05T07:01:18;0.82;;;0.30;;
66702;SDS011;60933;46.398;-63.798;2022-12-05T07:04:06;2.47;;;0.40;;
66702;SDS011;60933;46.398;-63.798;2022-12-05T07:06:44;0.50;;;0.20;;
66702;SDS011;60933;46.398;-63.798;2022-12-05T07:09:13;0.40;;;0.40;;
66702;SDS011;60933;46.398;-63.798;2022-12-05T07:11:40;1.83;;;0.45;;
66702;SDS011;60933;46.398;-63.798;2022-12-05T07:16:34;1.45;;;0.25;;
66702;SDS011;60933;46.398;-63.798;2022-12-05T07:19:00;0.90;;;0.32;;
66702;SDS011;60933;46.398;-63.798;2022-12-05T07:21:26;0.73;;;0.45;;
66702;SDS011;60933;46.398;-63.798;2022-12-05T07:23:53;0.40;;;0.30;;
66702;SDS011;60933;46.398;-63.798;2022-12-05T07:26:20;1.23;;;0.43;;
66702;SDS011;60933;46.398;-63.798;2022-12-05T07:28:49;0.20;;;0.20;;
66702;SDS011;60933;46.398;-63.798;2022-12-05T07:31:17;1.10;;;0.47;;
66702;SDS011;60933;46.398;-63.798;2022-12-05T07:33:46;0.43;;;0.20;;
66702;SDS011;60933;46.398;-63.798;2022-12-05T07:36:16;0.40;;;0.32;;
66702;SDS011;60933;46.398;-63.798;2022-12-05T07:38:43;0.98;;;0.30;;
66702;SDS011;60933;46.398;-63.798;2022-12-05T07:41:12;0.70;;;0.30;;
66702;SDS011;60933;46.398;-63.798;2022-12-05T07:43:42;0.30;;;0.30;;
66702;SDS011;60933;46.398;-63.798;2022-12-05T07:46:08;0.45;;;0.45;;
66702;SDS011;60933;46.398;-63.798;2022-12-05T07:48:38;0.50;;;0.30;;
66702;SDS011;60933;46.398;-63.798;2022-12-05T07:51:05;1.27;;;0.20;;
66702;SDS011;60933;46.398;-63.798;2022-12-05T07:53:32;0.80;;;0.30;;
66702;SDS011;60933;46.398;-63.798;2022-12-05T07:55:59;0.30;;;0.20;;
66702;SDS011;60933;46.398;-63.798;2022-12-05T07:58:27;0.80;;;0.30;;
66702;SDS011;60933;46.398;-63.798;2022-12-05T08:00:54;0.52;;;0.40;;
66702;SDS011;60933;46.398;-63.798;2022-12-05T08:03:21;0.22;;;0.22;;
66702;SDS011;60933;46.398;-63.798;2022-12-05T08:05:47;0.43;;;0.43;;
66702;SDS011;60933;46.398;-63.798;2022-12-05T08:08:13;0.15;;;0.13;;
66702;SDS011;60933;46.398;-63.798;2022-12-05T08:10:39;0.52;;;0.30;;
66702;SDS011;60933;46.398;-63.798;2022-12-05T08:13:05;0.20;;;0.20;;
66702;SDS011;60933;46.398;-63.798;2022-12-05T08:15:35;1.50;;;0.32;;
66702;SDS011;60933;46.398;-63.798;2022-12-05T08:18:02;0.40;;;0.20;;
66702;SDS011;60933;46.398;-63.798;2022-12-05T08:20:28;1.05;;;0.40;;
66702;SDS011;60933;46.398;-63.798;2022-12-05T08:25:20;0.80;;;0.22;;
66702;SDS011;60933;46.398;-63.798;2022-12-05T08:27:46;0.65;;;0.17;;
66702;SDS011;60933;46.398;-63.798;2022-12-05T08:30:12;2.83;;;0.50;;
66702;SDS011;60933;46.398;-63.798;2022-12-05T08:32:39;1.23;;;0.50;;
66702;SDS011;60933;46.398;-63.798;2022-12-05T08:37:31;2.05;;;0.40;;
66702;SDS011;60933;46.398;-63.798;2022-12-05T08:39:57;0.38;;;0.22;;
66702;SDS011;60933;46.398;-63.798;2022-12-05T08:42:23;0.40;;;0.30;;
66702;SDS011;60933;46.398;-63.798;2022-12-05T08:44:49;0.63;;;0.28;;
66702;SDS011;60933;46.398;-63.798;2022-12-05T08:47:15;0.38;;;0.30;;
66702;SDS011;60933;46.398;-63.798;2022-12-05T08:49:42;0.55;;;0.20;;
66702;SDS011;60933;46.398;-63.798;2022-12-05T08:52:08;1.50;;;0.60;;
66702;SDS011;60933;46.398;-63.798;2022-12-05T08:54:34;0.52;;;0.40;;
66702;SDS011;60933;46.398;-63.798;2022-12-05T08:57:00;0.90;;;0.30;;
66702;SDS011;60933;46.398;-63.798;2022-12-05T08:59:27;0.13;;;0.13;;
66702;SDS011;60933;46.398;-63.798;2022-12-05T09:01:53;0.95;;;0.20;;
66702;SDS011;60933;46.398;-63.798;2022-12-05T09:04:19;0.22;;;0.22;;
66702;SDS011;60933;46.398;-63.798;2022-12-05T09:06:45;0.50;;;0.30;;
66702;SDS011;60933;46.398;-63.798;2022-12-05T09:09:12;0.98;;;0.22;;
66702;SDS011;60933;46.398;-63.798;2022-12-05T09:11:40;0.30;;;0.20;;
66702;SDS011;60933;46.398;-63.798;2022-12-05T09:14:10;0.93;;;0.20;;
66702;SDS011;60933;46.398;-63.798;2022-12-05T09:16:37;0.55;;;0.40;;
66702;SDS011;60933;46.398;-63.798;2022-12-05T09:19:03;0.50;;;0.30;;
66702;SDS011;60933;46.398;-63.798;2022-12-05T09:21:31;1.23;;;0.22;;
66702;SDS011;60933;46.398;-63.798;2022-12-05T09:23:58;0.35;;;0.35;;
66702;SDS011;60933;46.398;-63.798;2022-12-05T09:26:25;0.40;;;0.35;;
66702;SDS011;60933;46.398;-63.798;2022-12-05T09:28:52;0.73;;;0.28;;
66702;SDS011;60933;46.398;-63.798;2022-12-05T09:33:46;1.33;;;0.30;;
66702;SDS011;60933;46.398;-63.798;2022-12-05T09:36:14;0.65;;;0.30;;
66702;SDS011;60933;46.398;-63.798;2022-12-05T09:38:42;0.17;;;0.17;;
66702;SDS011;60933;46.398;-63.798;2022-12-05T09:44:08;0.20;;;0.20;;
66702;SDS011;60933;46.398;-63.798;2022-12-05T09:46:59;0.47;;;0.47;;
66702;SDS011;60933;46.398;-63.798;2022-12-05T09:49:29;1.73;;;0.35;;
66702;SDS011;60933;46.398;-63.798;2022-12-05T09:51:57;0.50;;;0.50;;
66702;SDS011;60933;46.398;-63.798;2022-12-05T09:54:25;0.80;;;0.45;;
66702;SDS011;60933;46.398;-63.798;2022-12-05T09:56:52;0.75;;;0.30;;
66702;SDS011;60933;46.398;-63.798;2022-12-05T09:59:19;0.30;;;0.10;;
66702;SDS011;60933;46.398;-63.798;2022-12-05T10:04:44;1.13;;;0.25;;
66702;SDS011;60933;46.398;-63.798;2022-12-05T10:07:34;0.82;;;0.25;;
66702;SDS011;60933;46.398;-63.798;2022-12-05T10:10:26;1.67;;;0.40;;
66702;SDS011;60933;46.398;-63.798;2022-12-05T10:15:53;0.50;;;0.30;;
66702;SDS011;60933;46.398;-63.798;2022-12-05T10:21:24;1.40;;;0.47;;
66702;SDS011;60933;46.398;-63.798;2022-12-05T10:32:48;2.53;;;0.77;;
66702;SDS011;60933;46.398;-63.798;2022-12-05T10:35:19;3.28;;;0.70;;
66702;SDS011;60933;46.398;-63.798;2022-12-05T10:37:54;0.85;;;0.50;;
66702;SDS011;60933;46.398;-63.798;2022-12-05T10:40:25;1.85;;;0.32;;
66702;SDS011;60933;46.398;-63.798;2022-12-05T10:42:56;1.27;;;0.93;;
66702;SDS011;60933;46.398;-63.798;2022-12-05T10:45:23;1.10;;;0.40;;
66702;SDS011;60933;46.398;-63.798;2022-12-05T10:47:52;2.92;;;0.77;;
66702;SDS011;60933;46.398;-63.798;2022-12-05T10:50:33;0.93;;;0.52;;
66702;SDS011;60933;46.398;-63.798;2022-12-05T10:53:03;1.83;;;0.40;;
66702;SDS011;60933;46.398;-63.798;2022-12-05T10:55:39;3.60;;;0.50;;
66702;SDS011;60933;46.398;-63.798;2022-12-05T11:00:51;1.98;;;0.63;;
66702;SDS011;60933;46.398;-63.798;2022-12-05T11:05:57;1.05;;;0.88;;
66702;SDS011;60933;46.398;-63.798;2022-12-05T11:08:27;1.25;;;0.50;;
66702;SDS011;60933;46.398;-63.798;2022-12-05T11:11:38;1.00;;;0.50;;
66702;SDS011;60933;46.398;-63.798;2022-12-05T11:13:58;1.38;;;0.70;;
66702;SDS011;60933;46.398;-63.798;2022-12-05T11:16:30;0.60;;;0.50;;
66702;SDS011;60933;46.398;-63.798;2022-12-05T11:22:03;0.85;;;0.50;;
66702;SDS011;60933;46.398;-63.798;2022-12-05T11:24:38;2.47;;;0.60;;
66702;SDS011;60933;46.398;-63.798;2022-12-05T11:32:45;3.38;;;1.02;;
66702;SDS011;60933;46.398;-63.798;2022-12-05T11:43:42;0.43;;;0.43;;
66702;SDS011;60933;46.398;-63.798;2022-12-05T11:49:43;0.63;;;0.45;;
66702;SDS011;60933;46.398;-63.798;2022-12-05T11:55:53;1.88;;;0.70;;
66702;SDS011;60933;46.398;-63.798;2022-12-05T12:04:15;4.40;;;0.57;;
66702;SDS011;60933;46.398;-63.798;2022-12-05T12:12:28;1.85;;;1.10;;
66702;SDS011;60933;46.398;-63.798;2022-12-05T12:15:07;1.98;;;0.80;;
66702;SDS011;60933;46.398;-63.798;2022-12-05T12:33:40;2.75;;;0.60;;
66702;SDS011;60933;46.398;-63.798;2022-12-05T12:47:44;2.70;;;0.47;;
66702;SDS011;60933;46.398;-63.798;2022-12-05T12:50:18;3.28;;;0.85;;
66702;SDS011;60933;46.398;-63.798;2022-12-05T12:52:51;2.22;;;0.95;;
66702;SDS011;60933;46.398;-63.798;2022-12-05T12:56:11;3.95;;;1.33;;
66702;SDS011;60933;46.398;-63.798;2022-12-05T12:59:01;5.00;;;1.52;;
66702;SDS011;60933;46.398;-63.798;2022-12-05T13:06:48;4.40;;;1.05;;
66702;SDS011;60933;46.398;-63.798;2022-12-05T13:09:48;6.97;;;1.65;;
66702;SDS011;60933;46.398;-63.798;2022-12-05T13:12:26;4.40;;;1.30;;
66702;SDS011;60933;46.398;-63.798;2022-12-05T13:18:05;3.60;;;1.23;;
66702;SDS011;60933;46.398;-63.798;2022-12-05T13:20:35;4.75;;;1.52;;
66702;SDS011;60933;46.398;-63.798;2022-12-05T13:23:03;5.97;;;1.25;;
66702;SDS011;60933;46.398;-63.798;2022-12-05T13:25:33;1.40;;;0.40;;
66702;SDS011;60933;46.398;-63.798;2022-12-05T13:28:05;3.03;;;1.08;;
66702;SDS011;60933;46.398;-63.798;2022-12-05T13:30:48;2.95;;;1.05;;
66702;SDS011;60933;46.398;-63.798;2022-12-05T13:33:30;3.15;;;1.10;;
66702;SDS011;60933;46.398;-63.798;2022-12-05T13:36:14;3.13;;;1.10;;
66702;SDS011;60933;46.398;-63.798;2022-12-05T13:39:02;3.10;;;0.52;;
66702;SDS011;60933;46.398;-63.798;2022-12-05T13:41:53;0.77;;;0.47;;
66702;SDS011;60933;46.398;-63.798;2022-12-05T13:50:14;1.10;;;0.40;;
66702;SDS011;60933;46.398;-63.798;2022-12-05T13:52:58;1.05;;;0.50;;
66702;SDS011;60933;46.398;-63.798;2022-12-05T13:55:38;0.40;;;0.30;;
66702;SDS011;60933;46.398;-63.798;2022-12-05T14:00:44;0.73;;;0.52;;
66702;SDS011;60933;46.398;-63.798;2022-12-05T14:06:02;0.75;;;0.38;;
66702;SDS011;60933;46.398;-63.798;2022-12-05T14:15:53;0.65;;;0.45;;
66702;SDS011;60933;46.398;-63.798;2022-12-05T14:18:47;0.63;;;0.40;;
66702;SDS011;60933;46.398;-63.798;2022-12-05T14:24:31;0.50;;;0.20;;
66702;SDS011;60933;46.398;-63.798;2022-12-05T14:27:53;1.77;;;0.77;;
66702;SDS011;60933;46.398;-63.798;2022-12-05T14:33:16;0.20;;;0.20;;
66702;SDS011;60933;46.398;-63.798;2022-12-05T14:35:48;0.68;;;0.22;;
66702;SDS011;60933;46.398;-63.798;2022-12-05T14:38:18;0.17;;;0.17;;
66702;SDS011;60933;46.398;-63.798;2022-12-05T14:41:11;0.40;;;0.35;;
66702;SDS011;60933;46.398;-63.798;2022-12-05T14:44:00;0.68;;;0.17;;
66702;SDS011;60933;46.398;-63.798;2022-12-05T14:46:28;0.25;;;0.13;;
66702;SDS011;60933;46.398;-63.798;2022-12-05T14:48:56;0.38;;;0.25;;
66702;SDS011;60933;46.398;-63.798;2022-12-05T14:51:54;0.80;;;0.32;;
66702;SDS011;60933;46.398;-63.798;2022-12-05T14:54:21;0.60;;;0.40;;
66702;SDS011;60933;46.398;-63.798;2022-12-05T14:56:50;0.50;;;0.13;;
66702;SDS011;60933;46.398;-63.798;2022-12-05T15:00:13;0.32;;;0.30;;
66702;SDS011;60933;46.398;-63.798;2022-12-05T15:02:31;0.10;;;0.10;;
66702;SDS011;60933;46.398;-63.798;2022-12-05T15:05:03;0.10;;;0.10;;
66702;SDS011;60933;46.398;-63.798;2022-12-05T15:10:03;0.35;;;0.17;;
66702;SDS011;60933;46.398;-63.798;2022-12-05T15:12:40;0.40;;;0.22;;
66702;SDS011;60933;46.398;-63.798;2022-12-05T15:15:30;0.60;;;0.28;;
66702;SDS011;60933;46.398;-63.798;2022-12-05T15:20:56;1.52;;;0.30;;
66702;SDS011;60933;46.398;-63.798;2022-12-05T15:26:17;0.88;;;0.30;;
66702;SDS011;60933;46.398;-63.798;2022-12-05T15:31:46;0.50;;;0.32;;
66702;SDS011;60933;46.398;-63.798;2022-12-05T15:34:14;0.47;;;0.20;;
66702;SDS011;60933;46.398;-63.798;2022-12-05T15:42:21;0.75;;;0.70;;
66702;SDS011;60933;46.398;-63.798;2022-12-05T15:45:13;1.95;;;0.30;;
66702;SDS011;60933;46.398;-63.798;2022-12-05T15:48:09;0.50;;;0.32;;
66702;SDS011;60933;46.398;-63.798;2022-12-05T15:55:37;0.65;;;0.45;;
66702;SDS011;60933;46.398;-63.798;2022-12-05T15:58:16;0.75;;;0.40;;
66702;SDS011;60933;46.398;-63.798;2022-12-05T16:01:14;1.10;;;0.28;;
66702;SDS011;60933;46.398;-63.798;2022-12-05T16:06:33;0.60;;;0.38;;
66702;SDS011;60933;46.398;-63.798;2022-12-05T16:09:14;3.03;;;0.20;;
66702;SDS011;60933;46.398;-63.798;2022-12-05T16:14:42;2.72;;;0.10;;
66702;SDS011;60933;46.398;-63.798;2022-12-05T16:17:13;0.20;;;0.20;;
66702;SDS011;60933;46.398;-63.798;2022-12-05T16:19:41;0.40;;;0.20;;
66702;SDS011;60933;46.398;-63.798;2022-12-05T16:22:13;1.83;;;0.20;;
66702;SDS011;60933;46.398;-63.798;2022-12-05T16:24:45;0.40;;;0.22;;
66702;SDS011;60933;46.398;-63.798;2022-12-05T16:27:22;0.88;;;0.22;;
66702;SDS011;60933;46.398;-63.798;2022-12-05T16:30:06;0.75;;;0.30;;
66702;SDS011;60933;46.398;-63.798;2022-12-05T16:32:39;0.50;;;0.43;;
66702;SDS011;60933;46.398;-63.798;2022-12-05T16:38:10;0.75;;;0.35;;
66702;SDS011;60933;46.398;-63.798;2022-12-05T16:40:40;0.30;;;0.30;;
66702;SDS011;60933;46.398;-63.798;2022-12-05T16:43:43;0.40;;;0.22;;
66702;SDS011;60933;46.398;-63.798;2022-12-05T16:48:37;0.70;;;0.30;;
66702;SDS011;60933;46.398;-63.798;2022-12-05T16:53:53;2.38;;;0.30;;
66702;SDS011;60933;46.398;-63.798;2022-12-05T16:56:30;0.40;;;0.30;;
66702;SDS011;60933;46.398;-63.798;2022-12-05T16:59:01;0.40;;;0.20;;
66702;SDS011;60933;46.398;-63.798;2022-12-05T17:01:31;0.35;;;0.30;;
66702;SDS011;60933;46.398;-63.798;2022-12-05T17:03:57;0.60;;;0.32;;
66702;SDS011;60933;46.398;-63.798;2022-12-05T17:06:24;0.82;;;0.52;;
66702;SDS011;60933;46.398;-63.798;2022-12-05T17:08:51;0.38;;;0.32;;
66702;SDS011;60933;46.398;-63.798;2022-12-05T17:11:19;0.32;;;0.30;;
66702;SDS011;60933;46.398;-63.798;2022-12-05T17:13:49;0.65;;;0.20;;
66702;SDS011;60933;46.398;-63.798;2022-12-05T17:16:17;0.55;;;0.30;;
66702;SDS011;60933;46.398;-63.798;2022-12-05T17:18:44;0.38;;;0.20;;
66702;SDS011;60933;46.398;-63.798;2022-12-05T17:21:13;1.00;;;0.20;;
66702;SDS011;60933;46.398;-63.798;2022-12-05T17:23:41;0.43;;;0.43;;
66702;SDS011;60933;46.398;-63.798;2022-12-05T17:26:10;0.90;;;0.32;;
66702;SDS011;60933;46.398;-63.798;2022-12-05T17:28:38;0.90;;;0.28;;
66702;SDS011;60933;46.398;-63.798;2022-12-05T17:31:04;0.43;;;0.43;;
66702;SDS011;60933;46.398;-63.798;2022-12-05T17:33:33;0.85;;;0.30;;
66702;SDS011;60933;46.398;-63.798;2022-12-05T17:35:59;1.08;;;0.20;;
66702;SDS011;60933;46.398;-63.798;2022-12-05T17:38:25;0.63;;;0.32;;
66702;SDS011;60933;46.398;-63.798;2022-12-05T17:40:52;1.60;;;0.63;;
66702;SDS011;60933;46.398;-63.798;2022-12-05T17:43:18;2.38;;;0.45;;
66702;SDS011;60933;46.398;-63.798;2022-12-05T17:45:44;0.70;;;0.40;;
66702;SDS011;60933;46.398;-63.798;2022-12-05T17:48:12;0.50;;;0.47;;
66702;SDS011;60933;46.398;-63.798;2022-12-05T17:50:39;0.95;;;0.40;;
66702;SDS011;60933;46.398;-63.798;2022-12-05T17:53:13;1.33;;;0.20;;
66702;SDS011;60933;46.398;-63.798;2022-12-05T17:55:40;1.35;;;0.32;;
66702;SDS011;60933;46.398;-63.798;2022-12-05T17:58:13;0.28;;;0.10;;
66702;SDS011;60933;46.398;-63.798;2022-12-05T18:00:40;2.42;;;0.73;;
66702;SDS011;60933;46.398;-63.798;2022-12-05T18:03:16;1.88;;;0.22;;
66702;SDS011;60933;46.398;-63.798;2022-12-05T18:05:43;1.23;;;0.22;;
66702;SDS011;60933;46.398;-63.798;2022-12-05T18:08:11;0.28;;;0.28;;
66702;SDS011;60933;46.398;-63.798;2022-12-05T18:10:42;1.85;;;0.22;;
66702;SDS011;60933;46.398;-63.798;2022-12-05T18:13:09;0.70;;;0.22;;
66702;SDS011;60933;46.398;-63.798;2022-12-05T18:15:36;0.70;;;0.60;;
66702;SDS011;60933;46.398;-63.798;2022-12-05T18:18:03;0.75;;;0.25;;
66702;SDS011;60933;46.398;-63.798;2022-12-05T18:20:31;0.77;;;0.35;;
66702;SDS011;60933;46.398;-63.798;2022-12-05T18:22:57;0.52;;;0.28;;
66702;SDS011;60933;46.398;-63.798;2022-12-05T18:25:25;0.30;;;0.20;;
66702;SDS011;60933;46.398;-63.798;2022-12-05T18:27:51;1.40;;;0.20;;
66702;SDS011;60933;46.398;-63.798;2022-12-05T18:30:18;0.47;;;0.47;;
66702;SDS011;60933;46.398;-63.798;2022-12-05T18:32:44;1.95;;;0.52;;
66702;SDS011;60933;46.398;-63.798;2022-12-05T18:35:10;1.27;;;0.40;;
66702;SDS011;60933;46.398;-63.798;2022-12-05T18:37:37;2.55;;;0.22;;
66702;SDS011;60933;46.398;-63.798;2022-12-05T18:40:03;0.32;;;0.32;;
66702;SDS011;60933;46.398;-63.798;2022-12-05T18:42:31;2.65;;;0.43;;
66702;SDS011;60933;46.398;-63.798;2022-12-05T18:44:57;0.63;;;0.30;;
66702;SDS011;60933;46.398;-63.798;2022-12-05T18:47:23;0.60;;;0.30;;
66702;SDS011;60933;46.398;-63.798;2022-12-05T18:49:49;0.80;;;0.40;;
66702;SDS011;60933;46.398;-63.798;2022-12-05T18:52:15;0.60;;;0.25;;
66702;SDS011;60933;46.398;-63.798;2022-12-05T18:54:42;1.20;;;0.30;;
66702;SDS011;60933;46.398;-63.798;2022-12-05T18:57:08;0.80;;;0.50;;
66702;SDS011;60933;46.398;-63.798;2022-12-05T18:59:35;2.42;;;0.13;;